Time;durP1;ratioP1;P1;durP2;ratioP2;P2;SDS_P1;SDS_P2;PMS_P1;PMS_P2;Temp;Humidity;BMP_temperature;BMP_pressure;BME280_temperature;BME280_humidity;BME280_pressure;Samples;Min_cycle;Max_cycle;Signal;HPM_P1;HPM_P2
2022/07/25 00:00:13;;;;;;;14.88;13.02;;;;;;;24.98;49.43;99649.97;4977744;28;20483;-83
2022/07/25 00:02:41;;;;;;;15.30;12.48;;;;;;;24.87;49.17;99655.16;4953873;28;20874;-83
2022/07/25 00:05:11;;;;;;;18.17;13.00;;;;;;;24.96;49.08;99652.94;4970128;28;20461;-83
2022/07/25 00:07:38;;;;;;;20.95;13.55;;;;;;;24.89;49.69;99641.34;4979431;28;20574;-83
2022/07/25 00:10:05;;;;;;;18.10;12.90;;;;;;;24.87;49.73;99641.56;4962474;28;20061;-83
2022/07/25 00:12:32;;;;;;;16.27;12.85;;;;;;;24.83;49.86;99637.69;4932135;28;20042;-83
2022/07/25 00:15:00;;;;;;;19.30;12.40;;;;;;;24.76;49.74;99633.44;4961146;28;20454;-83
2022/07/25 00:17:27;;;;;;;17.00;12.32;;;;;;;24.78;50.17;99628.56;4962547;28;20053;-82
2022/07/25 00:19:53;;;;;;;16.27;12.30;;;;;;;24.71;50.14;99636.84;4996773;28;20038;-83
2022/07/25 00:22:20;;;;;;;15.15;12.43;;;;;;;24.70;50.23;99640.59;4967495;28;20038;-83
2022/07/25 00:24:47;;;;;;;16.23;12.55;;;;;;;24.71;49.95;99630.59;4976568;28;20042;-83
2022/07/25 00:27:13;;;;;;;16.85;13.10;;;;;;;24.74;49.67;99633.66;4947125;28;20046;-83
2022/07/25 00:29:40;;;;;;;19.55;12.73;;;;;;;24.65;50.13;99638.59;4964020;28;20050;-88
2022/07/25 00:32:07;;;;;;;17.23;13.65;;;;;;;24.68;50.04;99635.41;4967112;28;20042;-88
2022/07/25 00:34:33;;;;;;;14.40;12.43;;;;;;;24.64;50.38;99636.09;4944844;28;20086;-88
2022/07/25 00:37:00;;;;;;;14.20;11.90;;;;;;;24.64;50.71;99641.53;4987116;28;20043;-88
2022/07/25 00:39:27;;;;;;;19.05;12.98;;;;;;;24.61;50.29;99642.81;4982292;28;20051;-87
2022/07/25 00:41:54;;;;;;;14.38;12.88;;;;;;;24.54;50.66;99639.38;4996086;28;20063;-87
2022/07/25 00:44:28;;;;;;;21.02;13.02;;;;;;;24.61;49.86;99639.28;4980672;28;20057;-87
2022/07/25 00:46:55;;;;;;;17.42;12.57;;;;;;;24.56;49.85;99633.72;4962726;28;20042;-85
2022/07/25 00:49:23;;;;;;;16.90;13.02;;;;;;;24.50;50.81;99637.34;4979569;28;20109;-82
2022/07/25 00:51:50;;;;;;;17.70;12.45;;;;;;;24.52;50.56;99625.22;4978040;28;20043;-83
2022/07/25 00:54:17;;;;;;;19.70;13.02;;;;;;;24.52;50.81;99632.53;4981073;28;20049;-83
2022/07/25 00:56:44;;;;;;;16.30;12.55;;;;;;;24.41;51.22;99636.84;4970749;28;20043;-83
2022/07/25 00:59:11;;;;;;;17.65;13.02;;;;;;;24.41;51.19;99625.97;4957789;28;20057;-82
2022/07/25 01:01:38;;;;;;;16.80;12.68;;;;;;;24.39;51.10;99628.09;4992457;28;20047;-83
2022/07/25 01:04:05;;;;;;;21.13;14.18;;;;;;;24.43;50.84;99623.88;4982411;28;20068;-83
2022/07/25 01:06:34;;;;;;;14.82;12.63;;;;;;;24.38;51.18;99624.56;4963961;28;20872;-82
2022/07/25 01:09:00;;;;;;;16.90;12.98;;;;;;;24.34;51.36;99617.09;4950513;28;20050;-83
2022/07/25 01:11:27;;;;;;;15.05;12.27;;;;;;;24.30;51.55;99624.03;4981801;28;20054;-83
2022/07/25 01:13:54;;;;;;;17.17;13.38;;;;;;;24.31;51.25;99618.41;4981395;28;20192;-83
2022/07/25 01:16:21;;;;;;;15.70;12.48;;;;;;;24.25;51.42;99617.44;4947627;28;20050;-83
2022/07/25 01:18:47;;;;;;;18.50;12.70;;;;;;;24.22;51.53;99617.06;4963595;28;20121;-82
2022/07/25 01:21:14;;;;;;;14.75;12.10;;;;;;;24.18;51.70;99615.88;5015658;28;20038;-88
2022/07/25 01:23:41;;;;;;;16.10;13.23;;;;;;;24.15;51.59;99617.16;4934493;28;20499;-89
2022/07/25 01:26:08;;;;;;;14.52;12.60;;;;;;;24.11;51.42;99612.41;4977782;28;20112;-88
2022/07/25 01:28:35;;;;;;;17.02;12.27;;;;;;;24.19;51.04;99609.38;4965129;28;20173;-87
2022/07/25 01:31:01;;;;;;;16.45;13.32;;;;;;;24.10;51.35;99600.75;5015232;28;20054;-88
2022/07/25 01:33:28;;;;;;;15.15;13.10;;;;;;;24.25;50.17;99597.63;4963702;28;20130;-87
2022/07/25 01:35:55;;;;;;;16.30;12.65;;;;;;;24.18;50.35;99599.59;5014357;28;20562;-88
2022/07/25 01:38:23;;;;;;;17.02;13.05;;;;;;;24.14;50.70;99598.38;4981364;28;20129;-87
2022/07/25 01:40:50;;;;;;;15.52;13.35;;;;;;;24.09;51.03;99599.06;4986510;28;20109;-88
2022/07/25 01:43:17;;;;;;;16.30;12.80;;;;;;;24.04;51.16;99597.06;4966867;28;20565;-88
2022/07/25 01:45:43;;;;;;;14.23;11.93;;;;;;;23.99;51.35;99596.94;4953776;28;20050;-88
2022/07/25 01:48:10;;;;;;;17.83;13.07;;;;;;;23.95;51.59;99601.16;5016003;28;20490;-88
2022/07/25 01:50:37;;;;;;;15.98;12.68;;;;;;;23.94;51.06;99593.22;4997459;28;20046;-88
2022/07/25 01:53:04;;;;;;;15.20;13.35;;;;;;;23.99;51.09;99588.81;4969694;28;20375;-87
2022/07/25 01:55:30;;;;;;;18.25;13.30;;;;;;;23.96;51.23;99585.69;4970311;28;20046;-87
2022/07/25 01:57:58;;;;;;;19.23;13.00;;;;;;;23.93;51.29;99581.56;4968488;28;20039;-87
2022/07/25 02:00:25;;;;;;;16.00;12.98;;;;;;;23.90;51.11;99582.03;4968203;28;20097;-87
2022/07/25 02:05:37;;;;;;;23.85;13.65;;;;;;;23.83;51.57;99581.28;4966844;28;20049;-83
2022/07/25 02:08:04;;;;;;;15.65;12.35;;;;;;;23.82;51.04;99571.50;4982363;28;20042;-83
2022/07/25 02:10:31;;;;;;;15.23;12.77;;;;;;;23.79;51.36;99580.94;4985945;28;20049;-83
2022/07/25 02:12:59;;;;;;;16.58;12.70;;;;;;;23.84;51.28;99574.81;4981450;28;20050;-83
2022/07/25 02:15:26;;;;;;;20.05;14.38;;;;;;;23.80;52.77;99573.63;4968819;28;20054;-83
2022/07/25 02:17:53;;;;;;;14.75;12.80;;;;;;;23.71;53.07;99564.94;4967739;28;20042;-83
2022/07/25 02:20:19;;;;;;;16.80;11.88;;;;;;;23.64;53.81;99566.91;4984214;28;20038;-83
2022/07/25 02:22:46;;;;;;;15.95;11.95;;;;;;;23.61;54.36;99564.66;4967537;28;20046;-83
2022/07/25 02:25:13;;;;;;;15.68;11.77;;;;;;;23.56;54.79;99568.03;4968515;28;20455;-86
2022/07/25 02:27:41;;;;;;;17.95;13.25;;;;;;;23.43;55.46;99561.94;4985256;28;20047;-87
2022/07/25 02:30:08;;;;;;;18.88;12.27;;;;;;;23.43;55.38;99565.47;4965732;28;20048;-87
2022/07/25 02:32:35;;;;;;;14.50;12.38;;;;;;;23.39;55.19;99556.97;4966265;28;20721;-88
2022/07/25 02:35:01;;;;;;;14.98;12.32;;;;;;;23.38;55.42;99562.63;4946421;28;20042;-88
2022/07/25 02:37:28;;;;;;;17.52;12.57;;;;;;;23.31;55.45;99564.59;4980414;28;20042;-88
2022/07/25 02:39:55;;;;;;;19.05;12.60;;;;;;;23.30;54.97;99561.03;4959352;28;20580;-86
2022/07/25 02:42:24;;;;;;;15.48;12.15;;;;;;;23.28;54.80;99559.59;4989812;28;20046;-86
2022/07/25 02:44:50;;;;;;;14.27;11.80;;;;;;;23.28;54.50;99560.44;4984938;28;20506;-85
2022/07/25 02:47:17;;;;;;;13.93;12.20;;;;;;;23.30;54.15;99557.50;4999314;28;20066;-85
2022/07/25 02:49:44;;;;;;;15.13;12.23;;;;;;;23.28;53.98;99556.91;4979236;28;20049;-85
2022/07/25 02:52:11;;;;;;;19.05;12.70;;;;;;;23.18;53.98;99554.72;4981227;28;20058;-85
2022/07/25 02:54:37;;;;;;;16.40;12.95;;;;;;;23.21;54.17;99556.16;4968425;28;20466;-85
2022/07/25 02:57:04;;;;;;;14.20;12.13;;;;;;;23.20;54.64;99555.31;5000259;28;20133;-85
2022/07/25 02:59:31;;;;;;;14.20;12.20;;;;;;;23.25;54.19;99560.06;4976839;28;20047;-85
2022/07/25 03:01:58;;;;;;;20.90;12.75;;;;;;;23.24;55.23;99559.25;4955197;28;20042;-85
2022/07/25 03:04:26;;;;;;;15.48;11.98;;;;;;;23.17;54.94;99559.28;4977372;28;20065;-85
2022/07/25 03:06:53;;;;;;;16.05;12.18;;;;;;;23.18;54.82;99562.84;4982829;28;20050;-84
2022/07/25 03:09:20;;;;;;;15.23;12.90;;;;;;;23.16;55.04;99556.84;4956200;28;20054;-82
2022/07/25 03:11:47;;;;;;;15.80;12.20;;;;;;;23.08;55.12;99554.41;4982092;28;20478;-83
2022/07/25 03:14:13;;;;;;;14.20;11.80;;;;;;;23.03;54.70;99546.97;4994865;28;20450;-83
2022/07/25 03:16:40;;;;;;;17.10;12.23;;;;;;;22.98;54.66;99554.94;4955996;28;20046;-82
2022/07/25 03:19:09;;;;;;;15.85;12.75;;;;;;;22.97;54.59;99555.97;4958251;28;20042;-83
2022/07/25 03:21:36;;;;;;;14.18;11.88;;;;;;;22.96;54.49;99549.69;4983361;28;20053;-81
2022/07/25 03:24:07;;;;;;;18.50;12.60;;;;;;;22.99;54.37;99542.22;4984517;28;20047;-84
2022/07/25 03:26:39;;;;;;;14.32;12.57;;;;;;;23.01;54.08;99535.53;4987579;28;20045;-85
2022/07/25 03:29:10;;;;;;;17.10;12.95;;;;;;;23.04;54.01;99536.94;4984308;28;20073;-84
2022/07/25 03:31:37;;;;;;;18.25;13.15;;;;;;;23.06;54.05;99540.28;4965976;28;20058;-85
2022/07/25 03:34:03;;;;;;;17.98;13.35;;;;;;;23.02;54.10;99537.16;4979941;28;20038;-87
2022/07/25 03:36:31;;;;;;;17.20;12.43;;;;;;;23.07;54.22;99544.63;4967264;28;20050;-86
2022/07/25 03:38:58;;;;;;;16.08;12.93;;;;;;;22.98;54.39;99538.69;4958223;28;20058;-84
2022/07/25 03:41:25;;;;;;;16.08;12.40;;;;;;;22.93;54.28;99522.25;4999150;28;20051;-86
2022/07/25 03:43:54;;;;;;;15.20;12.60;;;;;;;22.91;54.51;99525.16;4983630;28;20038;-81
2022/07/25 03:46:20;;;;;;;18.70;12.80;;;;;;;22.86;54.61;99533.13;4978782;28;20105;-81
2022/07/25 03:48:47;;;;;;;17.60;12.82;;;;;;;22.83;54.71;99516.53;4961687;28;20085;-85
2022/07/25 03:51:14;;;;;;;17.55;12.88;;;;;;;22.79;54.67;99521.53;5015988;28;20066;-85
2022/07/25 03:56:38;;;;;;;18.45;12.45;;;;;;;22.65;54.83;99517.31;5007824;28;20235;-86
2022/07/25 03:59:11;;;;;;;15.98;13.10;;;;;;;22.85;54.33;99515.25;4943861;28;20047;-86
2022/07/25 04:01:38;;;;;;;17.23;13.02;;;;;;;22.82;54.49;99514.84;4981340;28;20042;-85
2022/07/25 04:04:05;;;;;;;15.75;12.13;;;;;;;22.81;54.67;99515.91;4981220;28;20133;-85
2022/07/25 04:06:32;;;;;;;15.63;12.20;;;;;;;22.83;54.25;99513.81;4969327;28;20125;-85
2022/07/25 04:08:59;;;;;;;16.33;12.48;;;;;;;22.84;54.69;99519.00;4985233;28;20493;-85
2022/07/25 04:11:28;;;;;;;17.50;12.95;;;;;;;22.76;54.87;99520.09;4997680;28;20441;-88
2022/07/25 04:13:57;;;;;;;15.85;12.38;;;;;;;22.74;54.89;99522.22;4977168;28;20513;-87
2022/07/25 04:16:23;;;;;;;15.93;12.68;;;;;;;23.07;54.79;99518.38;4994572;28;20328;-88
2022/07/25 04:18:54;;;;;;;18.05;12.82;;;;;;;23.91;54.18;99515.88;4979427;28;20042;-86
2022/07/25 04:21:23;;;;;;;16.20;12.75;;;;;;;24.86;52.10;99515.00;4951396;28;20046;-88
2022/07/25 04:23:50;;;;;;;15.32;13.32;;;;;;;25.50;49.79;99515.03;4964988;28;20046;-85
2022/07/25 04:26:17;;;;;;;16.70;13.07;;;;;;;26.25;47.35;99520.50;4965565;28;20046;-88
2022/07/25 04:28:44;;;;;;;16.20;13.07;;;;;;;26.53;45.94;99512.28;4980031;28;20062;-83
2022/07/25 04:31:10;;;;;;;16.40;12.80;;;;;;;26.59;45.48;99513.19;4947621;28;20062;-84
2022/07/25 04:33:38;;;;;;;16.38;13.05;;;;;;;26.19;46.18;99511.41;4983123;28;20104;-86
2022/07/25 04:36:05;;;;;;;16.73;13.45;;;;;;;25.88;46.66;99510.88;4983988;28;20054;-86
2022/07/25 04:38:33;;;;;;;16.30;13.10;;;;;;;25.42;47.24;99501.81;4966356;28;20047;-86
2022/07/25 04:41:00;;;;;;;16.70;13.43;;;;;;;25.22;47.64;99501.41;4978948;28;20596;-86
2022/07/25 04:43:26;;;;;;;17.88;13.70;;;;;;;25.02;48.03;99497.13;4965665;28;20107;-82
2022/07/25 04:46:19;;;;;;;17.67;13.75;;;;;;;24.54;48.84;99500.13;4997370;28;20050;-82
2022/07/25 04:48:46;;;;;;;;;;;;;;;24.15;49.56;99494.25;4943404;28;20444;-82
2022/07/25 04:51:14;;;;;;;17.90;14.25;;;;;;;24.45;49.16;99489.63;4981346;28;19929;-81
2022/07/25 04:53:40;;;;;;;17.10;13.60;;;;;;;24.41;49.53;99487.56;4959657;28;20043;-81
2022/07/25 04:56:07;;;;;;;23.33;14.18;;;;;;;24.30;49.92;99488.38;4936236;28;20104;-81
2022/07/25 04:58:34;;;;;;;18.30;14.02;;;;;;;24.27;50.08;99497.81;4954020;28;20050;-81
2022/07/25 05:01:01;;;;;;;22.80;16.05;;;;;;;24.04;50.62;99496.72;4976695;28;20050;-82
2022/07/25 05:03:27;;;;;;;21.02;14.23;;;;;;;24.04;50.93;99491.28;4979480;28;20137;-83
2022/07/25 05:05:54;;;;;;;23.35;15.38;;;;;;;23.96;51.11;99494.31;4999830;28;20046;-83
2022/07/25 05:08:21;;;;;;;20.80;15.20;;;;;;;23.87;51.41;99493.00;4997278;28;20042;-83
2022/07/25 05:10:47;;;;;;;18.17;13.93;;;;;;;23.85;51.72;99497.84;4979029;28;20116;-83
2022/07/25 05:13:15;;;;;;;20.05;14.88;;;;;;;23.90;51.61;99494.44;4982343;28;20049;-83
2022/07/25 05:15:41;;;;;;;25.23;15.23;;;;;;;23.75;52.19;99492.13;4962776;28;20482;-81
2022/07/25 05:18:08;;;;;;;18.17;15.05;;;;;;;23.87;51.97;99484.06;4970805;28;20050;-81
2022/07/25 05:20:35;;;;;;;19.27;14.73;;;;;;;23.88;52.02;99491.13;4969588;28;20047;-81
2022/07/25 05:23:02;;;;;;;21.25;13.88;;;;;;;23.92;52.34;99486.91;4985041;28;20587;-82
2022/07/25 05:25:28;;;;;;;23.58;14.75;;;;;;;23.88;51.83;99486.50;4967149;28;20065;-82
2022/07/25 05:27:57;;;;;;;18.85;13.80;;;;;;;24.00;51.34;99483.84;4987503;28;20093;-84
2022/07/25 05:30:24;;;;;;;21.63;13.25;;;;;;;24.04;51.58;99487.72;5003074;28;20486;-83
2022/07/25 05:32:51;;;;;;;22.33;14.07;;;;;;;24.02;51.12;99479.84;5004014;28;20042;-83
2022/07/25 05:35:17;;;;;;;16.98;13.15;;;;;;;24.04;51.23;99475.03;4968420;28;20479;-84
2022/07/25 05:37:44;;;;;;;19.73;13.35;;;;;;;23.97;51.35;99471.56;4987426;28;20042;-83
2022/07/25 05:40:12;;;;;;;17.33;13.80;;;;;;;24.01;51.60;99477.34;5001345;28;20050;-84
2022/07/25 05:42:38;;;;;;;19.30;14.30;;;;;;;24.01;51.51;99470.03;4982558;28;20050;-83
2022/07/25 05:45:06;;;;;;;20.80;14.10;;;;;;;24.05;51.77;99475.84;4985801;28;20046;-83
2022/07/25 05:47:32;;;;;;;22.20;15.13;;;;;;;24.02;51.80;99470.88;4975342;28;20113;-83
2022/07/25 05:50:00;;;;;;;19.42;14.43;;;;;;;24.03;52.05;99476.06;4981672;28;20046;-83
2022/07/25 05:52:27;;;;;;;25.08;14.25;;;;;;;24.18;52.05;99494.63;4981804;28;20050;-84
2022/07/25 05:54:53;;;;;;;18.83;14.18;;;;;;;24.24;51.87;99479.28;4953367;28;20478;-83
2022/07/25 05:57:20;;;;;;;19.33;13.88;;;;;;;24.25;52.00;99475.53;4986605;28;20143;-84
2022/07/25 05:59:47;;;;;;;20.73;14.48;;;;;;;24.35;52.14;99477.63;4986068;28;20045;-84
2022/07/25 06:02:14;;;;;;;18.77;14.18;;;;;;;24.38;51.72;99477.19;4971526;28;20042;-83
2022/07/25 06:04:41;;;;;;;20.52;14.27;;;;;;;24.39;51.74;99460.66;4968028;28;20101;-84
2022/07/25 06:07:09;;;;;;;19.77;13.93;;;;;;;24.40;52.08;99462.31;4981384;28;20486;-83
2022/07/25 06:09:42;;;;;;;19.92;14.35;;;;;;;24.56;51.31;99463.53;5015519;28;20038;-83
2022/07/25 06:12:09;;;;;;;21.55;14.98;;;;;;;24.63;51.37;99455.28;4968222;28;20042;-85
2022/07/25 06:14:37;;;;;;;18.08;13.82;;;;;;;24.69;51.03;99452.44;4944946;28;20038;-86
2022/07/25 06:17:03;;;;;;;18.83;14.27;;;;;;;24.71;51.03;99451.38;4969663;28;20070;-86
2022/07/25 06:19:35;;;;;;;18.40;13.80;;;;;;;24.69;51.02;99455.13;4986649;28;20050;-83
2022/07/25 06:22:01;;;;;;;17.15;13.80;;;;;;;24.72;50.60;99458.44;4995256;28;20054;-83
2022/07/25 06:24:28;;;;;;;21.15;12.90;;;;;;;24.81;50.88;99451.59;5016733;28;20105;-83
2022/07/25 06:26:55;;;;;;;23.08;14.00;;;;;;;24.81;51.06;99449.72;4970376;28;20054;-83
2022/07/25 06:29:21;;;;;;;16.17;13.55;;;;;;;24.85;51.24;99445.44;4969235;28;20046;-82
2022/07/25 06:31:48;;;;;;;22.45;14.32;;;;;;;24.87;51.23;99451.47;4984767;28;20053;-82
2022/07/25 06:34:15;;;;;;;18.20;13.77;;;;;;;24.94;51.33;99443.19;4986066;28;20038;-81
2022/07/25 06:37:08;;;;;;;16.42;12.82;;;;;;;24.90;51.76;99442.00;5019335;28;20067;-82
2022/07/25 06:39:35;;;;;;;18.23;13.15;;;;;;;25.02;51.34;99442.81;4963575;28;20061;-83
2022/07/25 06:42:03;;;;;;;16.65;13.05;;;;;;;25.08;51.44;99446.44;4960868;28;20054;-83
2022/07/25 06:44:33;;;;;;;22.20;14.75;;;;;;;25.08;51.56;99441.84;4961586;28;20545;-83
2022/07/25 06:47:01;;;;;;;16.77;14.55;;;;;;;25.09;51.35;99445.41;4977265;28;20039;-83
2022/07/25 06:49:28;;;;;;;19.17;13.95;;;;;;;25.13;51.15;99441.13;4968513;28;20133;-85
2022/07/25 06:51:54;;;;;;;18.75;13.40;;;;;;;25.17;50.93;99444.22;4980884;28;20045;-85
2022/07/25 06:54:21;;;;;;;16.77;13.25;;;;;;;25.23;50.24;99435.91;4970070;28;20035;-83
2022/07/25 07:01:19;;;;;;;19.70;14.18;;;;;;;25.30;50.68;99436.63;4954265;28;20042;-83
2022/07/25 07:03:45;;;;;;;16.65;13.38;;;;;;;25.34;50.51;99426.09;4965697;28;20062;-84
2022/07/25 07:06:12;;;;;;;15.95;13.80;;;;;;;25.38;50.07;99421.00;4949641;28;20376;-82
2022/07/25 07:08:39;;;;;;;18.25;14.02;;;;;;;25.40;49.70;99425.13;4947269;28;20446;-82
2022/07/25 07:12:01;;;;;;;19.10;13.70;;;;;;;25.35;50.29;99419.59;4964005;28;20106;-82
2022/07/25 07:14:28;;;;;;;14.32;11.82;;;;;;;25.50;50.50;99427.22;4959428;28;20057;-81
2022/07/25 07:16:55;;;;;;;16.50;13.35;;;;;;;25.51;50.29;99424.22;4929504;28;20046;-81
2022/07/25 07:19:22;;;;;;;19.40;13.68;;;;;;;25.54;50.96;99422.91;4984125;28;20058;-82
2022/07/25 07:21:50;;;;;;;17.60;14.45;;;;;;;25.61;50.07;99414.63;4963176;28;20045;-83
2022/07/25 07:24:17;;;;;;;17.02;13.13;;;;;;;25.66;50.60;99422.88;5012977;28;20133;-83
2022/07/25 07:26:50;;;;;;;21.13;13.75;;;;;;;25.70;50.66;99413.97;4998865;28;20046;-83
2022/07/25 07:29:17;;;;;;;14.55;12.48;;;;;;;25.76;50.16;99407.53;4966245;28;20065;-84
2022/07/25 07:31:44;;;;;;;16.70;14.25;;;;;;;25.84;50.21;99421.81;4965182;28;20053;-83
2022/07/25 07:34:12;;;;;;;16.35;14.00;;;;;;;25.86;49.79;99414.28;4999156;28;20486;-82
2022/07/25 07:36:41;;;;;;;16.00;14.00;;;;;;;25.88;49.62;99410.25;4976737;28;20094;-83
2022/07/25 07:39:08;;;;;;;21.20;14.65;;;;;;;25.92;49.96;99413.28;4976550;28;20053;-83
2022/07/25 07:41:35;;;;;;;18.50;13.13;;;;;;;25.96;50.05;99409.81;5000807;28;20438;-83
2022/07/25 07:44:02;;;;;;;16.50;13.57;;;;;;;25.99;49.86;99403.06;4969293;28;20053;-85
2022/07/25 07:46:28;;;;;;;19.08;13.35;;;;;;;26.03;49.75;99406.09;4985807;28;20058;-83
2022/07/25 07:49:00;;;;;;;19.90;15.68;;;;;;;26.03;49.46;99406.94;4964191;28;20050;-83
2022/07/25 08:00:38;;;;;;;24.13;15.90;;;;;;;26.17;49.92;99397.34;4954930;28;20459;-84
2022/07/25 08:03:07;;;;;;;20.27;14.38;;;;;;;26.20;50.21;99396.03;4959617;28;20506;-83
2022/07/25 08:05:38;;;;;;;17.38;13.27;;;;;;;26.23;49.69;99392.00;4949885;28;20647;-83
2022/07/25 08:08:07;;;;;;;20.10;14.32;;;;;;;26.29;50.15;99402.72;4951574;28;20118;-84
2022/07/25 08:10:36;;;;;;;20.45;14.52;;;;;;;26.33;50.02;99403.88;4965490;28;20058;-83
2022/07/25 08:13:17;;;;;;;20.25;13.52;;;;;;;26.34;49.93;99393.81;4953850;28;20063;-82
2022/07/25 08:15:46;;;;;;;17.30;13.40;;;;;;;26.44;50.18;99393.13;4941700;28;20106;-82
2022/07/25 08:18:13;;;;;;;18.58;13.68;;;;;;;26.50;50.04;99395.66;4959264;28;20088;-82
2022/07/25 08:20:43;;;;;;;19.20;14.40;;;;;;;26.54;50.02;99387.88;4968109;28;20486;-82
2022/07/25 08:23:10;;;;;;;21.65;14.10;;;;;;;26.56;50.10;99389.25;4968044;28;20129;-82
2022/07/25 08:25:37;;;;;;;18.90;14.93;;;;;;;26.62;49.95;99388.25;4990801;28;20054;-83
2022/07/25 08:28:05;;;;;;;23.95;15.10;;;;;;;26.68;49.77;99389.13;4980578;28;20406;-82
2022/07/25 08:30:33;;;;;;;17.27;14.35;;;;;;;26.74;49.81;99392.72;4985677;28;20042;-82
2022/07/25 08:33:04;;;;;;;15.68;13.30;;;;;;;26.76;50.12;99391.41;5017058;28;20093;-82
2022/07/25 08:35:32;;;;;;;21.50;15.10;;;;;;;26.80;49.46;99394.47;4997209;28;20047;-81
2022/07/25 08:37:59;;;;;;;18.80;15.77;;;;;;;26.82;49.78;99395.84;4986554;28;20101;-82
2022/07/25 08:40:28;;;;;;;19.55;14.60;;;;;;;26.81;49.75;99391.47;4972474;28;20054;-84
2022/07/25 08:42:55;;;;;;;19.80;14.10;;;;;;;26.86;49.54;99398.88;4954080;28;20039;-83
2022/07/25 08:45:23;;;;;;;17.48;14.25;;;;;;;26.91;49.27;99396.22;4981354;28;20047;-83
2022/07/25 08:47:51;;;;;;;20.15;14.65;;;;;;;26.94;48.80;99403.88;4966803;28;20100;-83
2022/07/25 08:50:20;;;;;;;19.98;13.85;;;;;;;26.96;49.00;99398.19;5001177;28;20569;-84
2022/07/25 08:52:48;;;;;;;21.35;14.85;;;;;;;26.98;49.43;99394.13;4971069;28;20455;-84
2022/07/25 08:55:18;;;;;;;20.88;15.15;;;;;;;27.03;49.41;99385.22;4974890;28;20121;-83
2022/07/25 08:57:47;;;;;;;16.60;14.27;;;;;;;27.10;49.08;99393.19;4984313;28;20105;-84
2022/07/25 09:00:34;;;;;;;17.38;13.18;;;;;;;27.14;48.53;99391.59;4971417;28;20070;-84
2022/07/25 09:03:02;;;;;;;17.95;14.68;;;;;;;27.20;48.27;99387.88;4974250;28;20557;-84
2022/07/25 09:05:31;;;;;;;15.43;13.60;;;;;;;27.23;48.35;99385.47;4991010;28;20049;-83
2022/07/25 09:08:08;;;;;;;17.38;13.85;;;;;;;27.26;48.10;99375.94;4970995;28;20053;-83
2022/07/25 09:10:36;;;;;;;16.20;14.55;;;;;;;27.32;47.92;99379.53;5000979;28;20049;-84
2022/07/25 09:13:06;;;;;;;15.88;14.07;;;;;;;27.32;47.31;99374.91;4988556;28;20173;-84
2022/07/25 09:15:36;;;;;;;16.58;13.90;;;;;;;27.38;47.59;99375.81;4986813;28;20046;-84
2022/07/25 09:18:09;;;;;;;22.20;14.85;;;;;;;27.40;47.57;99377.19;4954894;28;20054;-84
2022/07/25 09:20:39;;;;;;;18.25;14.18;;;;;;;27.46;47.07;99367.97;4981213;28;20042;-84
2022/07/25 09:23:06;;;;;;;18.65;13.70;;;;;;;27.52;47.62;99368.84;4985978;28;20046;-84
2022/07/25 09:25:33;;;;;;;18.80;15.25;;;;;;;27.58;46.18;99366.97;5001624;28;20054;-85
2022/07/25 09:28:15;;;;;;;21.25;15.25;;;;;;;27.55;46.78;99351.94;4971117;28;20045;-84
2022/07/25 09:30:57;;;;;;;18.08;14.30;;;;;;;27.59;46.58;99350.38;4939783;28;20046;-84
2022/07/25 09:33:25;;;;;;;17.67;14.93;;;;;;;27.67;46.98;99352.59;4962892;28;20141;-84
2022/07/25 09:35:53;;;;;;;20.67;14.13;;;;;;;27.73;46.48;99350.75;5002454;28;20101;-84
2022/07/25 09:38:21;;;;;;;17.75;14.48;;;;;;;27.78;46.48;99348.06;4986632;28;20042;-84
2022/07/25 09:40:58;;;;;;;16.17;13.57;;;;;;;27.81;46.38;99352.16;4970394;28;20472;-84
2022/07/25 09:43:54;;;;;;;16.38;14.30;;;;;;;27.80;45.81;99354.06;4970021;28;20115;-84
2022/07/25 09:46:31;;;;;;;16.83;13.25;;;;;;;27.89;45.84;99349.00;4951586;28;20049;-84
2022/07/25 09:48:59;;;;;;;14.40;12.88;;;;;;;27.93;45.77;99350.13;4998715;28;20400;-84
2022/07/25 09:51:29;;;;;;;18.92;14.35;;;;;;;27.95;45.42;99344.41;5002362;28;20054;-84
2022/07/25 09:53:55;;;;;;;20.52;13.55;;;;;;;28.01;45.10;99346.91;4982317;28;20449;-85
2022/07/25 09:56:22;;;;;;;20.92;15.05;;;;;;;28.02;45.02;99345.00;4986166;28;20058;-84
2022/07/25 09:59:43;;;;;;;19.20;13.65;;;;;;;27.95;44.94;99338.94;4971710;28;20050;-84
2022/07/25 10:02:22;;;;;;;16.90;13.90;;;;;;;28.04;44.44;99345.56;4930621;28;20065;-83
2022/07/25 10:05:07;;;;;;;15.50;12.95;;;;;;;28.01;44.50;99325.09;4984143;28;20047;-83
2022/07/25 10:07:38;;;;;;;14.70;12.40;;;;;;;28.07;44.77;99323.22;5000966;28;20502;-83
2022/07/25 10:10:05;;;;;;;18.48;14.27;;;;;;;28.13;44.09;99322.13;4980065;28;20042;-83
2022/07/25 10:12:32;;;;;;;18.27;13.30;;;;;;;28.13;44.59;99320.22;4985721;28;20045;-83
2022/07/25 10:18:56;;;;;;;17.90;12.83;;;;;;;28.22;42.28;99311.56;4958388;28;20097;-82
2022/07/25 10:21:25;;;;;;;16.88;13.20;;;;;;;28.26;42.88;99307.19;4957410;28;20841;-82
2022/07/25 10:24:02;;;;;;;18.08;13.77;;;;;;;28.30;41.74;99300.13;4985433;28;20058;-87
2022/07/25 10:26:30;;;;;;;15.20;13.30;;;;;;;28.36;42.12;99302.59;4968216;28;20558;-86
2022/07/25 10:28:57;;;;;;;16.48;13.95;;;;;;;28.40;42.23;99296.63;4958901;28;20070;-82
2022/07/25 10:31:32;;;;;;;16.60;13.07;;;;;;;28.41;42.75;99296.34;4984086;28;20054;-83
2022/07/25 10:34:02;;;;;;;17.25;13.73;;;;;;;28.42;42.55;99288.97;4998976;28;20411;-82
2022/07/25 10:36:50;;;;;;;15.40;13.23;;;;;;;28.38;43.32;99283.22;5014336;28;20073;-81
2022/07/25 10:39:18;;;;;;;15.80;13.63;;;;;;;28.45;42.35;99286.56;4972350;28;20049;-83
2022/07/25 10:41:54;;;;;;;17.65;13.65;;;;;;;28.43;43.26;99282.44;4976411;28;20406;-83
2022/07/25 10:44:21;;;;;;;15.23;12.75;;;;;;;28.51;43.20;99287.41;4962818;28;20038;-83
2022/07/25 10:46:49;;;;;;;16.48;12.45;;;;;;;28.55;43.01;99289.34;4983084;28;20042;-83
2022/07/25 10:49:18;;;;;;;13.90;12.45;;;;;;;28.58;42.59;99281.72;4983448;28;20430;-86
2022/07/25 10:52:16;;;;;;;15.32;12.50;;;;;;;28.55;42.71;99285.81;4983527;28;20062;-86
2022/07/25 10:54:53;;;;;;;16.30;12.95;;;;;;;28.62;41.75;99291.00;4948051;28;20161;-87
2022/07/25 10:57:20;;;;;;;14.57;13.02;;;;;;;28.67;42.10;99282.81;4965558;28;20042;-86
2022/07/25 11:00:41;;;;;;;17.75;13.38;;;;;;;28.64;42.03;99275.16;4983058;28;20100;-86
2022/07/25 11:03:08;;;;;;;17.55;14.45;;;;;;;28.74;41.44;99273.28;4950056;28;20047;-84
2022/07/25 11:05:45;;;;;;;14.32;11.68;;;;;;;28.81;41.62;99272.22;4960442;28;20135;-84
2022/07/25 11:08:12;;;;;;;16.77;12.90;;;;;;;28.84;41.28;99271.69;4934466;28;20051;-85
2022/07/25 11:10:53;;;;;;;13.05;11.40;;;;;;;28.82;41.52;99268.38;4984157;28;20157;-84
2022/07/25 11:13:20;;;;;;;;;;;;;;;28.72;42.12;99269.19;4947399;28;20043;-84
2022/07/25 11:15:47;;;;;;;14.13;11.98;;;;;;;28.83;41.91;99267.31;4987564;28;19922;-86
2022/07/25 11:18:14;;;;;;;15.75;11.82;;;;;;;28.87;41.55;99269.22;4961297;28;20509;-85
2022/07/25 11:20:40;;;;;;;14.70;12.50;;;;;;;28.90;41.04;99254.19;4936168;28;20182;-84
2022/07/25 11:23:07;;;;;;;20.50;13.07;;;;;;;28.93;40.48;99250.94;4965613;28;20047;-84
2022/07/25 11:25:41;;;;;;;14.25;11.52;;;;;;;28.93;40.30;99250.94;4963686;28;20483;-84
2022/07/25 11:28:07;;;;;;;14.73;10.98;;;;;;;28.97;40.46;99257.47;4965110;28;20049;-82
2022/07/25 11:30:34;;;;;;;13.43;12.00;;;;;;;29.00;40.39;99246.00;4964816;28;20066;-83
2022/07/25 11:33:01;;;;;;;11.27;10.15;;;;;;;29.07;40.24;99252.06;4946000;28;20043;-83
2022/07/25 11:35:29;;;;;;;15.63;11.73;;;;;;;29.14;40.06;99238.94;4946304;28;20051;-83
2022/07/25 11:38:00;;;;;;;14.15;11.48;;;;;;;29.24;38.96;99240.06;4959768;28;20054;-84
2022/07/25 11:40:27;;;;;;;12.48;10.52;;;;;;;29.32;39.29;99239.50;4962101;28;20622;-83
2022/07/25 11:42:56;;;;;;;13.63;10.85;;;;;;;29.38;38.96;99246.59;4944505;28;20130;-84
2022/07/25 11:45:25;;;;;;;18.30;11.25;;;;;;;29.40;39.18;99238.94;4962626;28;20062;-83
2022/07/25 11:48:06;;;;;;;12.20;9.93;;;;;;;29.39;39.03;99248.25;4948681;28;20116;-84